createdAt,value
2019-03-30T00:00:04.544Z,8.9
2019-03-30T00:02:05.872Z,8
2019-03-30T00:04:07.207Z,8.8
2019-03-30T00:06:08.635Z,8.3
2019-03-30T00:08:10.259Z,7.9
2019-03-30T00:10:11.680Z,8.3
2019-03-30T00:12:13.107Z,8.3
2019-03-30T00:14:14.526Z,8.1
2019-03-30T00:16:15.880Z,9.3
2019-03-30T00:18:17.301Z,8.8
2019-03-30T00:20:18.582Z,8.5
2019-03-30T00:22:19.973Z,9
2019-03-30T00:24:21.310Z,8.3
2019-03-30T00:28:24.157Z,9.1
2019-03-30T00:30:25.574Z,8.9
2019-03-30T00:32:26.984Z,8.5
2019-03-30T00:34:28.278Z,8.8
2019-03-30T00:36:29.628Z,9.2
2019-03-30T00:38:31.030Z,9.4
2019-03-30T00:40:32.274Z,9
2019-03-30T00:42:33.707Z,9.1
2019-03-30T00:44:35.055Z,9.4
2019-03-30T00:46:36.349Z,9.7
2019-03-30T00:48:37.678Z,9.7
2019-03-30T00:50:39.011Z,10
2019-03-30T00:52:40.378Z,9.5
2019-03-30T00:54:41.815Z,9.6
2019-03-30T00:56:43.232Z,9.2
2019-03-30T00:58:44.676Z,9.6
2019-03-30T01:00:46.085Z,9.5
2019-03-30T01:02:47.508Z,9.6
2019-03-30T01:04:48.922Z,9.5
2019-03-30T01:06:50.199Z,9.2
2019-03-30T01:08:51.598Z,9.5
2019-03-30T01:10:52.924Z,9.7
2019-03-30T01:12:54.234Z,9.5
2019-03-30T01:14:55.495Z,9
2019-03-30T01:16:56.728Z,9.3
2019-03-30T01:18:58.149Z,9.9
2019-03-30T01:20:59.575Z,10.2
2019-03-30T01:23:00.994Z,9.4
2019-03-30T01:25:02.329Z,10.1
2019-03-30T01:27:03.746Z,9.7
2019-03-30T01:29:05.073Z,9.5
2019-03-30T01:31:06.320Z,10.2
2019-03-30T01:33:07.640Z,10
2019-03-30T01:35:09.112Z,10.4
2019-03-30T01:37:10.458Z,9.9
2019-03-30T01:39:11.855Z,10.4
2019-03-30T01:41:13.283Z,9.7
2019-03-30T01:43:14.567Z,10.5
2019-03-30T01:45:16.029Z,11
2019-03-30T01:47:17.384Z,10.8
2019-03-30T01:49:18.754Z,9.9
2019-03-30T01:51:20.165Z,10
2019-03-30T01:53:21.564Z,10.2
2019-03-30T01:55:22.847Z,10.4
2019-03-30T01:57:24.124Z,10.2
2019-03-30T01:59:25.456Z,9.8
2019-03-30T02:01:26.896Z,10.1
2019-03-30T02:03:28.241Z,10.5
2019-03-30T02:05:29.737Z,10.3
2019-03-30T02:07:31.035Z,9.7
2019-03-30T02:09:32.357Z,9.6
2019-03-30T02:11:33.653Z,10
2019-03-30T02:13:34.922Z,10.6
2019-03-30T02:15:36.158Z,10
2019-03-30T02:17:37.538Z,10.3
2019-03-30T02:19:38.930Z,10.4
2019-03-30T02:21:40.255Z,10.4
2019-03-30T02:23:41.781Z,10.4
2019-03-30T02:25:43.125Z,10.5
2019-03-30T02:27:44.535Z,10.6
2019-03-30T02:29:45.862Z,11.1
2019-03-30T02:31:47.316Z,10.3
2019-03-30T02:33:48.716Z,9.7
2019-03-30T02:35:50.053Z,10.4
2019-03-30T02:37:51.468Z,10.2
2019-03-30T02:39:52.737Z,10.7
2019-03-30T02:41:54.174Z,11.1
2019-03-30T02:43:55.590Z,11.4
2019-03-30T02:45:57.037Z,11.2
2019-03-30T02:47:58.446Z,9.6
2019-03-30T02:49:59.879Z,11.2
2019-03-30T02:52:01.303Z,11.5
2019-03-30T02:54:02.721Z,12.2
2019-03-30T02:56:04.318Z,12.4
2019-03-30T02:58:05.691Z,11.4
2019-03-30T03:00:07.298Z,11.7
2019-03-30T03:02:08.638Z,13.6
2019-03-30T03:04:10.087Z,11.8
2019-03-30T03:06:11.502Z,11
2019-03-30T03:08:12.934Z,10.9
2019-03-30T03:10:14.302Z,10.9
2019-03-30T03:12:15.726Z,10.8
2019-03-30T03:14:17.128Z,10.7
2019-03-30T03:16:18.508Z,11.2
2019-03-30T03:18:19.906Z,11
2019-03-30T03:20:21.269Z,10.6
2019-03-30T03:22:22.646Z,10.6
2019-03-30T03:24:24.030Z,11.8
2019-03-30T03:26:25.404Z,11.8
2019-03-30T03:28:26.799Z,11.5
2019-03-30T03:30:28.136Z,11.7
2019-03-30T03:32:29.777Z,11.2
2019-03-30T03:34:31.177Z,11.6
2019-03-30T03:36:32.554Z,11.9
2019-03-30T03:38:33.899Z,11.8
2019-03-30T03:40:35.311Z,11.2
2019-03-30T03:42:36.685Z,11.4
2019-03-30T03:44:38.085Z,10.7
2019-03-30T03:46:39.461Z,10.4
2019-03-30T03:48:40.831Z,10.9
2019-03-30T03:50:42.168Z,11.3
2019-03-30T03:52:43.583Z,11.2
2019-03-30T03:54:44.946Z,11.7
2019-03-30T03:56:46.366Z,11.2
2019-03-30T03:58:47.692Z,11.8
2019-03-30T04:00:49.028Z,10.7
2019-03-30T04:02:50.474Z,11.6
2019-03-30T04:04:51.885Z,11.4
2019-03-30T04:06:53.285Z,12.4
2019-03-30T04:08:54.696Z,11
2019-03-30T04:10:55.930Z,11.6
2019-03-30T04:12:57.291Z,11.5
2019-03-30T04:14:58.683Z,10.9
2019-03-30T04:17:00.095Z,10.7
2019-03-30T04:19:01.455Z,11.5
2019-03-30T04:21:02.870Z,11.4
2019-03-30T04:23:04.279Z,11.8
2019-03-30T04:25:05.699Z,11.5
2019-03-30T04:27:07.099Z,12
2019-03-30T04:29:08.489Z,11
2019-03-30T04:31:09.867Z,11.9
2019-03-30T04:33:11.117Z,12.3
2019-03-30T04:35:12.465Z,12.1
2019-03-30T04:37:14.098Z,11.9
2019-03-30T04:39:15.478Z,11.2
2019-03-30T04:41:16.890Z,12.3
2019-03-30T04:43:18.319Z,11.4
2019-03-30T04:45:19.653Z,11.9
2019-03-30T04:47:20.986Z,11.6
2019-03-30T04:49:22.258Z,11.4
2019-03-30T04:51:23.719Z,11.5
2019-03-30T04:53:25.055Z,11.2
2019-03-30T04:55:26.385Z,11
2019-03-30T04:57:27.801Z,12.3
2019-03-30T04:59:29.125Z,11.7
2019-03-30T05:01:30.383Z,11.5
2019-03-30T05:03:31.762Z,11.7
2019-03-30T05:05:33.148Z,10.9
2019-03-30T05:07:34.543Z,11.5
2019-03-30T05:09:35.936Z,10.8
2019-03-30T05:11:37.256Z,10.3
2019-03-30T05:13:38.578Z,11.2
2019-03-30T05:15:39.886Z,11.4
2019-03-30T05:17:48.201Z,10.8
2019-03-30T05:19:49.614Z,11.5
2019-03-30T05:21:50.938Z,10.8
2019-03-30T05:23:52.320Z,10.2
2019-03-30T05:25:53.689Z,10.9
2019-03-30T05:27:55.066Z,10.2
2019-03-30T05:29:56.453Z,11.1
2019-03-30T05:31:57.834Z,10.7
2019-03-30T05:33:59.253Z,10.6
2019-03-30T05:36:00.682Z,11
2019-03-30T05:38:02.122Z,11
2019-03-30T05:40:03.546Z,10.6
2019-03-30T05:42:04.959Z,10.5
2019-03-30T05:44:06.387Z,11.8
2019-03-30T05:46:07.804Z,11.9
2019-03-30T05:48:09.133Z,11.1
2019-03-30T05:50:10.655Z,11.4
2019-03-30T05:52:26.890Z,11.2
2019-03-30T05:54:28.392Z,11.2
2019-03-30T05:56:29.741Z,11.2
2019-03-30T05:58:31.062Z,10.7
2019-03-30T06:00:32.389Z,10.9
2019-03-30T06:02:33.717Z,9.2
2019-03-30T06:04:35.032Z,9.1
2019-03-30T06:06:36.363Z,10.9
2019-03-30T06:08:37.779Z,9.9
2019-03-30T06:10:39.287Z,10
2019-03-30T06:12:40.594Z,11.6
2019-03-30T06:14:41.916Z,11.2
2019-03-30T06:16:43.161Z,10.2
2019-03-30T06:18:44.491Z,10.2
2019-03-30T06:20:45.874Z,11.8
2019-03-30T06:22:47.256Z,10.5
2019-03-30T06:24:48.688Z,11.5
2019-03-30T06:26:50.087Z,13.2
2019-03-30T06:28:51.460Z,10.2
2019-03-30T06:30:52.853Z,14.9
2019-03-30T06:32:54.267Z,12.6
2019-03-30T06:34:55.691Z,13.1
2019-03-30T06:36:57.028Z,13.6
2019-03-30T06:38:58.470Z,14.4
2019-03-30T06:40:59.817Z,14.1
2019-03-30T06:43:01.180Z,13.5
2019-03-30T06:45:02.447Z,14.7
2019-03-30T06:47:03.882Z,14.9
2019-03-30T06:49:05.278Z,15.5
2019-03-30T06:51:06.601Z,14.9
2019-03-30T06:53:07.963Z,16
2019-03-30T06:55:09.206Z,14.8
2019-03-30T06:57:10.435Z,15.9
2019-03-30T06:59:11.681Z,13.7
2019-03-30T07:01:13.104Z,14.5
2019-03-30T07:03:14.584Z,14
2019-03-30T07:05:15.875Z,16.1
2019-03-30T07:07:17.239Z,15.2
2019-03-30T07:09:18.584Z,16.5
2019-03-30T07:11:21.581Z,14.9
2019-03-30T07:13:22.891Z,14.3
2019-03-30T07:15:24.202Z,14.5
2019-03-30T07:17:25.619Z,13.8
2019-03-30T07:19:27.114Z,14.2
2019-03-30T07:21:28.412Z,13.1
2019-03-30T07:23:29.751Z,13.5
2019-03-30T07:25:31.171Z,13.7
2019-03-30T07:27:32.565Z,13
2019-03-30T07:29:33.991Z,12.3
2019-03-30T07:31:35.418Z,13.8
2019-03-30T07:33:36.844Z,15.4
2019-03-30T07:35:38.204Z,14.9
2019-03-30T07:37:39.634Z,14.1
2019-03-30T07:39:41.046Z,13.2
2019-03-30T07:41:42.457Z,14.2
2019-03-30T07:43:43.867Z,14.2
2019-03-30T07:45:45.227Z,13.9
2019-03-30T07:47:46.654Z,14.4
2019-03-30T07:49:48.082Z,13.6
2019-03-30T07:51:49.364Z,14
2019-03-30T07:53:50.785Z,13.7
2019-03-30T07:55:52.119Z,14
2019-03-30T07:57:53.512Z,15.1
2019-03-30T07:59:55.069Z,14
2019-03-30T08:01:56.494Z,14.2
2019-03-30T08:03:57.847Z,14.2
2019-03-30T08:05:59.275Z,13.9
2019-03-30T08:08:00.627Z,15.4
2019-03-30T08:10:01.969Z,14.5
2019-03-30T08:12:03.371Z,14.7
2019-03-30T08:14:04.714Z,16.1
2019-03-30T08:16:06.064Z,16.7
2019-03-30T08:18:07.328Z,15.1
2019-03-30T08:20:08.705Z,15.5
2019-03-30T08:22:10.093Z,17.4
2019-03-30T08:24:11.444Z,18.7
2019-03-30T08:26:12.855Z,18.9
2019-03-30T08:28:14.107Z,16.8
2019-03-30T08:30:15.613Z,16.1
2019-03-30T08:32:16.965Z,19.9
2019-03-30T08:34:18.307Z,16.3
2019-03-30T08:36:19.736Z,21.5
2019-03-30T08:38:21.164Z,16.6
2019-03-30T08:40:22.534Z,17.1
2019-03-30T08:42:23.900Z,19.6
2019-03-30T08:44:25.253Z,18.4
2019-03-30T08:46:26.668Z,20.2
2019-03-30T08:48:28.005Z,16.6
2019-03-30T08:50:29.447Z,16.3
2019-03-30T08:52:30.872Z,17
2019-03-30T08:54:32.219Z,15.7
2019-03-30T08:56:33.597Z,16.8
2019-03-30T08:58:35.022Z,16.2
2019-03-30T09:00:36.354Z,18.9
2019-03-30T09:02:37.734Z,17.2
2019-03-30T09:04:39.077Z,18.2
2019-03-30T09:06:40.499Z,16.9
2019-03-30T09:08:41.836Z,20.3
2019-03-30T09:10:43.290Z,17.6
2019-03-30T09:12:44.649Z,17.7
2019-03-30T09:14:46.037Z,17.6
2019-03-30T09:16:47.492Z,19.9
2019-03-30T09:18:48.879Z,17.9
2019-03-30T09:20:50.309Z,16.8
2019-03-30T09:22:51.561Z,16.2
2019-03-30T09:24:52.995Z,15.6
2019-03-30T09:26:54.319Z,18.4
2019-03-30T09:28:55.720Z,18.6
2019-03-30T09:30:57.095Z,17.4
2019-03-30T09:32:58.479Z,19
2019-03-30T09:34:59.865Z,17.5
2019-03-30T09:37:01.293Z,17.4
2019-03-30T09:39:02.729Z,17.7
2019-03-30T09:41:33.200Z,17.2
2019-03-30T09:43:37.822Z,16.5
2019-03-30T09:45:39.208Z,17.7
2019-03-30T09:47:40.469Z,16.9
2019-03-30T09:49:41.812Z,15.2
2019-03-30T09:51:43.158Z,16.6
2019-03-30T09:53:44.497Z,16.4
2019-03-30T09:55:45.843Z,17.3
2019-03-30T09:57:47.324Z,17.7
2019-03-30T09:59:48.726Z,17.4
2019-03-30T10:01:50.080Z,15.3
2019-03-30T10:03:51.465Z,15.4
2019-03-30T10:05:52.901Z,16.3
2019-03-30T10:07:54.318Z,15.6
2019-03-30T10:09:55.660Z,15.7
2019-03-30T10:11:57.098Z,14.9
2019-03-30T10:13:58.442Z,16.2
2019-03-30T10:15:59.783Z,16
2019-03-30T10:18:01.135Z,14.9
2019-03-30T10:20:05.215Z,15.7
2019-03-30T10:22:06.745Z,14.8
2019-03-30T10:24:08.181Z,15
2019-03-30T10:26:09.634Z,13.4
2019-03-30T10:28:11.061Z,12.9
2019-03-30T10:30:12.503Z,14.4
2019-03-30T10:32:13.855Z,13.1
2019-03-30T10:34:15.297Z,13.4
2019-03-30T10:36:16.742Z,12.4
2019-03-30T10:38:18.223Z,13
2019-03-30T10:40:21.116Z,12.2
2019-03-30T10:42:22.435Z,12.8
2019-03-30T10:44:23.842Z,13.1
2019-03-30T10:46:25.183Z,11.4
2019-03-30T10:48:26.530Z,12.9
2019-03-30T10:50:27.801Z,11.8
2019-03-30T10:52:29.137Z,12.5
2019-03-30T10:54:30.502Z,13.2
2019-03-30T10:56:31.878Z,13.2
2019-03-30T10:58:33.289Z,13
2019-03-30T11:00:34.699Z,12.1
2019-03-30T11:02:36.058Z,11.9
2019-03-30T11:04:37.877Z,11
2019-03-30T11:06:39.242Z,11.1
2019-03-30T11:08:40.588Z,10.5
2019-03-30T11:10:41.954Z,9.4
2019-03-30T11:12:43.379Z,9.4
2019-03-30T11:14:44.741Z,6.6
2019-03-30T11:16:46.127Z,6.2
2019-03-30T11:18:47.427Z,5.3
2019-03-30T11:20:48.877Z,7.5
2019-03-30T11:22:50.288Z,6.3
2019-03-30T11:25:08.183Z,5.9
2019-03-30T11:27:09.859Z,5.7
2019-03-30T11:29:11.238Z,6.2
2019-03-30T11:31:12.681Z,5.8
2019-03-30T11:33:14.033Z,7.2
2019-03-30T11:35:15.381Z,5
2019-03-30T11:37:16.736Z,10.4
2019-03-30T11:39:18.093Z,8.4
2019-03-30T11:41:19.564Z,8
2019-03-30T11:43:20.977Z,7.5
2019-03-30T11:45:22.426Z,7.7
2019-03-30T11:47:23.879Z,7.2
2019-03-30T11:49:25.336Z,7.2
2019-03-30T11:51:26.783Z,6.1
2019-03-30T11:53:28.230Z,5.9
2019-03-30T11:55:29.683Z,6.2
2019-03-30T11:57:31.126Z,5.2
2019-03-30T11:59:32.486Z,5.5
2019-03-30T12:01:33.845Z,5.3
2019-03-30T12:03:35.287Z,6.4
2019-03-30T12:05:36.637Z,7.5
2019-03-30T12:07:37.914Z,8.4
2019-03-30T12:09:39.274Z,7.6
2019-03-30T12:11:40.623Z,8
2019-03-30T12:13:41.982Z,7.3
2019-03-30T12:15:43.369Z,6.8
2019-03-30T12:17:44.800Z,7.4
2019-03-30T12:19:46.070Z,7.1
2019-03-30T12:21:47.353Z,7.6
2019-03-30T12:23:48.706Z,7.1
2019-03-30T12:25:50.122Z,6.8
2019-03-30T12:27:51.482Z,7.8
2019-03-30T12:29:52.884Z,8.3
2019-03-30T12:31:54.264Z,6.2
2019-03-30T12:33:55.549Z,6.4
2019-03-30T12:35:56.814Z,7.8
2019-03-30T12:37:58.213Z,7.5
2019-03-30T12:39:59.514Z,6.4
2019-03-30T12:42:00.952Z,6.4
2019-03-30T12:44:02.367Z,5.8
2019-03-30T12:46:03.793Z,7.5
2019-03-30T12:48:05.126Z,6
2019-03-30T12:50:06.470Z,5.9
2019-03-30T12:52:07.895Z,5.3
2019-03-30T12:54:09.254Z,6.1
2019-03-30T12:56:10.606Z,5.2
2019-03-30T12:58:11.968Z,5.5
2019-03-30T13:00:13.389Z,5.9
2019-03-30T13:02:14.752Z,5.8
2019-03-30T13:04:16.185Z,5
2019-03-30T13:06:17.618Z,6.1
2019-03-30T13:08:18.954Z,6.6
2019-03-30T13:10:20.333Z,7
2019-03-30T13:12:21.684Z,6.9
2019-03-30T13:14:23.038Z,6.1
2019-03-30T13:16:26.588Z,6
2019-03-30T13:18:27.973Z,5.7
2019-03-30T13:20:29.328Z,5.4
2019-03-30T13:22:30.587Z,5.9
2019-03-30T13:24:31.976Z,5.9
2019-03-30T13:26:33.338Z,6
2019-03-30T13:28:34.694Z,5.6
2019-03-30T13:30:36.142Z,5
2019-03-30T13:32:37.596Z,5.4
2019-03-30T13:34:39.049Z,6.5
2019-03-30T13:36:40.496Z,6.1
2019-03-30T13:38:41.948Z,5.8
2019-03-30T13:40:43.398Z,6.2
2019-03-30T13:42:44.702Z,6.4
2019-03-30T13:44:46.167Z,6.4
2019-03-30T13:46:47.613Z,5.6
2019-03-30T13:48:48.974Z,6.1
2019-03-30T13:50:50.435Z,6.6
2019-03-30T13:52:51.882Z,6
2019-03-30T13:54:53.286Z,6.4
2019-03-30T13:56:54.642Z,5.8
2019-03-30T13:58:55.977Z,5.4
2019-03-30T14:00:57.336Z,5.1
2019-03-30T14:02:58.695Z,5.5
2019-03-30T14:05:00.338Z,5.8
2019-03-30T14:07:01.749Z,6.1
2019-03-30T14:09:03.153Z,5.8
2019-03-30T14:11:04.527Z,6.2
2019-03-30T14:13:05.968Z,6.5
2019-03-30T14:15:09.725Z,5.8
2019-03-30T14:17:11.106Z,6
2019-03-30T14:19:12.427Z,6.5
2019-03-30T14:21:13.877Z,6.7
2019-03-30T14:23:15.241Z,7.1
2019-03-30T14:25:16.697Z,7.1
2019-03-30T14:27:18.140Z,7
2019-03-30T14:29:19.471Z,6.5
2019-03-30T14:31:20.873Z,6.6
2019-03-30T14:33:22.242Z,6.3
2019-03-30T14:35:23.607Z,7.6
2019-03-30T14:37:25.054Z,6.8
2019-03-30T14:39:26.409Z,7.3
2019-03-30T14:41:27.808Z,7
2019-03-30T14:43:29.253Z,7.8
2019-03-30T14:45:30.542Z,6.9
2019-03-30T14:47:31.955Z,8.3
2019-03-30T14:49:33.344Z,7.9
2019-03-30T14:51:34.816Z,7.2
2019-03-30T14:53:36.220Z,7.1
2019-03-30T14:55:39.856Z,7.9
2019-03-30T14:57:41.247Z,8.4
2019-03-30T14:59:42.693Z,8
2019-03-30T15:01:44.225Z,8.2
2019-03-30T15:03:45.699Z,7.7
2019-03-30T15:05:47.150Z,8.4
2019-03-30T15:07:48.556Z,8.1
2019-03-30T15:09:49.983Z,8.1
2019-03-30T15:11:51.429Z,7.3
2019-03-30T15:13:52.866Z,7.1
2019-03-30T15:15:54.216Z,7
2019-03-30T15:17:55.508Z,7.8
2019-03-30T15:19:56.875Z,7.7
2019-03-30T15:21:58.233Z,7.8
2019-03-30T15:23:59.705Z,7.5
2019-03-30T15:26:01.097Z,7.2
2019-03-30T15:28:02.470Z,8.9
2019-03-30T15:30:03.858Z,7.4
2019-03-30T15:32:05.222Z,7.2
2019-03-30T15:34:06.571Z,7.5
2019-03-30T15:36:07.928Z,8.1
2019-03-30T15:38:09.371Z,7.6
2019-03-30T15:40:10.698Z,7.5
2019-03-30T15:42:12.145Z,7.3
2019-03-30T15:44:13.706Z,7.3
2019-03-30T15:46:15.127Z,7
2019-03-30T15:48:16.507Z,6.9
2019-03-30T15:50:17.904Z,7.6
2019-03-30T15:52:19.287Z,7.6
2019-03-30T15:54:20.738Z,6.9
2019-03-30T15:56:22.190Z,7.2
2019-03-30T15:58:23.546Z,6.9
2019-03-30T16:00:24.855Z,7.6
2019-03-30T16:02:26.264Z,7.2
2019-03-30T16:04:27.730Z,7
2019-03-30T16:06:29.143Z,7.9
2019-03-30T16:08:30.543Z,7.5
2019-03-30T16:10:31.894Z,8.4
2019-03-30T16:12:33.349Z,8.3
2019-03-30T16:14:34.746Z,7.3
2019-03-30T16:16:36.113Z,6.8
2019-03-30T16:18:37.552Z,7.9
2019-03-30T16:20:38.857Z,9.2
2019-03-30T16:22:40.334Z,8.2
2019-03-30T16:24:41.760Z,8.1
2019-03-30T16:26:43.123Z,8.2
2019-03-30T16:28:44.569Z,8.2
2019-03-30T16:30:46.029Z,7.8
2019-03-30T16:32:47.480Z,7.3
2019-03-30T16:34:48.941Z,7.6
2019-03-30T16:36:50.382Z,7.6
2019-03-30T16:38:51.679Z,7.1
2019-03-30T16:40:53.135Z,8.6
2019-03-30T16:42:54.512Z,9.4
2019-03-30T16:44:55.932Z,9.4
2019-03-30T16:46:57.719Z,8.1
2019-03-30T16:48:59.150Z,7.8
2019-03-30T16:51:00.564Z,8.7
2019-03-30T16:53:02.018Z,8.9
2019-03-30T16:55:03.328Z,8.8
2019-03-30T16:57:04.775Z,9.4
2019-03-30T16:59:06.128Z,8.1
2019-03-30T17:01:07.479Z,8.4
2019-03-30T17:03:08.845Z,8.8
2019-03-30T17:05:10.318Z,8.6
2019-03-30T17:07:11.733Z,8.1
2019-03-30T17:09:13.083Z,7.6
2019-03-30T17:11:14.489Z,7.7
2019-03-30T17:13:15.911Z,7.4
2019-03-30T17:15:17.269Z,7.5
2019-03-30T17:17:18.558Z,7.1
2019-03-30T17:19:19.912Z,7.5
2019-03-30T17:21:21.287Z,7.3
2019-03-30T17:23:22.618Z,7.5
2019-03-30T17:25:23.930Z,6.9
2019-03-30T17:27:25.351Z,7.2
2019-03-30T17:29:26.782Z,7.5
2019-03-30T17:31:28.231Z,7.4
2019-03-30T17:33:29.675Z,7.9
2019-03-30T17:35:31.121Z,7.7
2019-03-30T17:37:32.575Z,8.2
2019-03-30T17:39:34.035Z,7.1
2019-03-30T17:41:35.465Z,7.9
2019-03-30T17:43:36.912Z,8.2
2019-03-30T17:45:38.355Z,8.7
2019-03-30T17:47:39.682Z,7.9
2019-03-30T17:49:41.131Z,7.2
2019-03-30T17:51:42.455Z,7.4
2019-03-30T17:53:43.962Z,6.9
2019-03-30T17:55:45.336Z,6.2
2019-03-30T17:57:46.769Z,5.7
2019-03-30T17:59:48.198Z,5.8
2019-03-30T18:01:49.643Z,5.6
2019-03-30T18:03:50.997Z,6.6
2019-03-30T18:05:52.415Z,5.5
2019-03-30T18:07:53.860Z,6.3
2019-03-30T18:09:55.114Z,5.5
2019-03-30T18:11:56.399Z,5.7
2019-03-30T18:13:57.833Z,5.4
2019-03-30T18:15:59.192Z,5.3
2019-03-30T18:18:00.483Z,5.8
2019-03-30T18:20:01.927Z,5.6
2019-03-30T18:22:03.369Z,6.1
2019-03-30T18:24:04.809Z,6.2
2019-03-30T18:26:06.244Z,6.3
2019-03-30T18:28:07.588Z,5.8
2019-03-30T18:30:08.937Z,6
2019-03-30T18:32:10.284Z,6.1
2019-03-30T18:34:11.708Z,6.5
2019-03-30T18:36:13.057Z,6
2019-03-30T18:38:14.407Z,5.8
2019-03-30T18:40:15.862Z,6
2019-03-30T18:42:17.284Z,5.7
2019-03-30T18:44:18.567Z,5.7
2019-03-30T18:46:19.827Z,6.2
2019-03-30T18:48:21.120Z,6.5
2019-03-30T18:50:22.564Z,14.3
2019-03-30T18:52:24.001Z,5.6
2019-03-30T18:54:25.356Z,5.7
2019-03-30T18:56:28.135Z,5.4
2019-03-30T18:58:42.050Z,5.6
2019-03-30T19:00:43.566Z,5.8
2019-03-30T19:02:44.927Z,5.6
2019-03-30T19:04:46.323Z,5.9
2019-03-30T19:06:47.638Z,5.5
2019-03-30T19:08:49.008Z,5.8
2019-03-30T19:10:50.355Z,6.2
2019-03-30T19:12:51.776Z,6.1
2019-03-30T19:14:53.167Z,6.4
2019-03-30T19:16:54.514Z,5.8
2019-03-30T19:18:55.856Z,6.4
2019-03-30T19:20:57.156Z,6.5
2019-03-30T19:22:58.447Z,6.5
2019-03-30T19:24:59.888Z,6.2
2019-03-30T19:27:01.273Z,6.8
2019-03-30T19:29:02.647Z,7
2019-03-30T19:31:03.947Z,6.9
2019-03-30T19:33:05.381Z,6.5
2019-03-30T19:35:06.794Z,6.8
2019-03-30T19:37:08.170Z,7.1
2019-03-30T19:39:09.623Z,6.7
2019-03-30T19:41:11.054Z,6.7
2019-03-30T19:43:12.325Z,6.8
2019-03-30T19:45:13.759Z,7.2
2019-03-30T19:47:15.100Z,7.2
2019-03-30T19:49:16.526Z,8.6
2019-03-30T19:51:17.871Z,8.6
2019-03-30T19:53:19.214Z,6.8
2019-03-30T19:55:20.565Z,7.5
2019-03-30T19:57:21.933Z,7.1
2019-03-30T19:59:23.388Z,7.7
2019-03-30T20:01:24.815Z,6.7
2019-03-30T20:03:26.160Z,6.7
2019-03-30T20:05:27.549Z,6.1
2019-03-30T20:07:28.881Z,6.7
2019-03-30T20:09:30.381Z,6.5
2019-03-30T20:11:31.789Z,7
2019-03-30T20:13:33.140Z,7.2
2019-03-30T20:15:34.580Z,7
2019-03-30T20:17:36.004Z,8.6
2019-03-30T20:19:37.268Z,8.7
2019-03-30T20:21:38.708Z,9.1
2019-03-30T20:23:40.140Z,9.2
2019-03-30T20:25:41.477Z,8.5
2019-03-30T20:27:42.823Z,10.8
2019-03-30T20:29:44.252Z,10.7
2019-03-30T20:31:45.690Z,13.4
2019-03-30T20:33:47.027Z,12.2
2019-03-30T20:35:48.375Z,12.1
2019-03-30T20:37:49.768Z,12
2019-03-30T20:39:51.179Z,10.3
2019-03-30T20:41:52.545Z,12.6
2019-03-30T20:43:53.907Z,11.5
2019-03-30T20:45:55.256Z,10.8
2019-03-30T20:47:56.699Z,9.9
2019-03-30T20:49:58.202Z,9.3
2019-03-30T20:51:59.571Z,8.3
2019-03-30T20:54:00.921Z,8.6
2019-03-30T20:56:02.351Z,8
2019-03-30T20:58:03.807Z,7.4
2019-03-30T21:00:05.245Z,6.2
2019-03-30T21:02:06.669Z,6.5
2019-03-30T21:04:08.113Z,7
2019-03-30T21:06:09.550Z,7.4
2019-03-30T21:08:10.983Z,7.3
2019-03-30T21:10:12.327Z,7.3
2019-03-30T21:12:13.724Z,7.2
2019-03-30T21:14:14.977Z,7.1
2019-03-30T21:16:16.350Z,8
2019-03-30T21:18:17.777Z,7.1
2019-03-30T21:20:19.217Z,8
2019-03-30T21:22:20.737Z,7.6
2019-03-30T21:24:22.090Z,8.2
2019-03-30T21:26:23.429Z,9
2019-03-30T21:28:24.805Z,8.1
2019-03-30T21:30:26.150Z,8.4
2019-03-30T21:32:27.484Z,7.7
2019-03-30T21:34:28.840Z,8.2
2019-03-30T21:36:30.261Z,8
2019-03-30T21:38:31.518Z,6.9
2019-03-30T21:40:32.931Z,7.2
2019-03-30T21:42:34.277Z,7.4
2019-03-30T21:44:35.694Z,14.9
2019-03-30T21:46:37.068Z,12.8
2019-03-30T21:48:38.454Z,14
2019-03-30T21:50:39.792Z,10.1
2019-03-30T21:52:41.129Z,10.7
2019-03-30T21:54:42.472Z,11.5
2019-03-30T21:56:43.839Z,12.6
2019-03-30T21:58:45.193Z,10.2
2019-03-30T22:00:46.633Z,8.5
2019-03-30T22:02:48.067Z,8.6
2019-03-30T22:04:49.495Z,8.7
2019-03-30T22:06:50.850Z,8.6
2019-03-30T22:08:52.257Z,8.8
2019-03-30T22:10:53.604Z,12.8
2019-03-30T22:12:55.039Z,9.2
2019-03-30T22:14:56.427Z,15.2
2019-03-30T22:16:57.762Z,10.5
2019-03-30T22:18:59.065Z,7.7
2019-03-30T22:21:00.570Z,8.7
2019-03-30T22:23:01.964Z,7.8
2019-03-30T22:25:03.345Z,8.1
2019-03-30T22:27:04.788Z,8.1
2019-03-30T22:29:06.219Z,7.2
2019-03-30T22:31:07.650Z,7.9
2019-03-30T22:33:08.899Z,7.5
2019-03-30T22:35:10.334Z,7.3
2019-03-30T22:37:11.763Z,6.8
2019-03-30T22:39:13.059Z,6.8
2019-03-30T22:41:14.396Z,6.8
2019-03-30T22:43:15.831Z,6.9
2019-03-30T22:45:17.183Z,7.3
2019-03-30T22:47:18.554Z,6.8
2019-03-30T22:49:20.001Z,6.8
2019-03-30T22:51:21.318Z,6.7
2019-03-30T22:53:22.717Z,7
2019-03-30T22:55:24.058Z,7.3
2019-03-30T22:57:25.367Z,7.5
2019-03-30T22:59:26.628Z,7.7
2019-03-30T23:01:28.010Z,8.5
2019-03-30T23:03:29.352Z,8.6
2019-03-30T23:05:30.769Z,7.3
2019-03-30T23:07:32.150Z,7.2
2019-03-30T23:09:33.561Z,6.8
2019-03-30T23:11:34.921Z,7.3
2019-03-30T23:13:36.257Z,8.1
2019-03-30T23:15:37.596Z,7.4
2019-03-30T23:17:39.026Z,7
2019-03-30T23:19:40.381Z,7
2019-03-30T23:21:41.819Z,6.3
2019-03-30T23:23:43.240Z,7.3
2019-03-30T23:25:44.578Z,6.6
2019-03-30T23:27:46.015Z,7.1
2019-03-30T23:29:47.343Z,8.5
2019-03-30T23:31:48.619Z,9.8
2019-03-30T23:33:49.999Z,9.2
2019-03-30T23:35:51.348Z,8.6
2019-03-30T23:37:52.728Z,7.9
2019-03-30T23:39:54.066Z,8
2019-03-30T23:41:55.444Z,8.3
2019-03-30T23:43:56.785Z,8.1
2019-03-30T23:45:58.178Z,7.7
2019-03-30T23:47:59.567Z,8
2019-03-30T23:50:00.984Z,8.7
2019-03-30T23:52:02.357Z,7.8
2019-03-30T23:54:03.738Z,7.8
2019-03-30T23:56:05.158Z,7.6
2019-03-30T23:58:06.566Z,7.6
